createdAt,value
2023-11-13T00:01:22.429Z,0.98
2023-11-13T00:03:49.738Z,1.23
2023-11-13T00:06:16.409Z,0.80
2023-11-13T00:08:43.865Z,1.00
2023-11-13T00:11:10.719Z,1.88
2023-11-13T00:13:37.739Z,1.20
2023-11-13T00:16:04.950Z,1.20
2023-11-13T00:18:33.038Z,1.83
2023-11-13T00:21:00.242Z,1.52
2023-11-13T00:23:28.513Z,1.73
2023-11-13T00:25:55.245Z,2.15
2023-11-13T00:28:22.040Z,1.77
2023-11-13T00:30:48.822Z,1.38
2023-11-13T00:33:17.301Z,2.17
2023-11-13T00:35:45.509Z,1.98
2023-11-13T00:38:12.138Z,1.90
2023-11-13T00:40:38.719Z,1.80
2023-11-13T00:43:06.085Z,1.50
2023-11-13T00:45:33.136Z,1.67
2023-11-13T00:47:59.764Z,2.53
2023-11-13T00:50:26.383Z,1.92
2023-11-13T00:52:52.930Z,1.75
2023-11-13T00:55:19.537Z,1.83
2023-11-13T00:57:46.484Z,1.48
2023-11-13T01:00:14.581Z,2.83
2023-11-13T01:02:41.194Z,2.50
2023-11-13T01:05:08.288Z,2.25
2023-11-13T01:07:35.189Z,1.92
2023-11-13T01:10:01.859Z,2.97
2023-11-13T01:12:28.447Z,2.42
2023-11-13T01:14:54.992Z,1.80
2023-11-13T01:17:21.532Z,1.90
2023-11-13T01:19:48.050Z,1.90
2023-11-13T01:22:14.694Z,2.17
2023-11-13T01:24:41.307Z,1.90
2023-11-13T01:27:07.845Z,2.08
2023-11-13T01:29:34.419Z,2.13
2023-11-13T01:32:01.971Z,2.63
2023-11-13T01:34:28.680Z,2.38
2023-11-13T01:36:55.339Z,2.22
2023-11-13T01:39:21.923Z,2.88
2023-11-13T01:41:48.777Z,2.92
2023-11-13T01:44:15.309Z,2.08
2023-11-13T01:46:43.920Z,2.95
2023-11-13T01:49:11.011Z,2.83
2023-11-13T01:51:37.762Z,2.72
2023-11-13T01:54:05.341Z,2.30
2023-11-13T01:56:32.924Z,2.40
2023-11-13T01:59:00.132Z,3.13
2023-11-13T02:01:29.235Z,2.95
2023-11-13T02:03:55.911Z,2.60
2023-11-13T02:06:25.608Z,2.53
2023-11-13T02:08:52.092Z,2.28
2023-11-13T02:11:19.720Z,2.78
2023-11-13T02:13:47.612Z,2.10
2023-11-13T02:16:14.294Z,2.22
2023-11-13T02:18:41.387Z,2.25
2023-11-13T02:21:08.365Z,2.70
2023-11-13T02:23:35.291Z,2.72
2023-11-13T02:26:11.143Z,2.35
2023-11-13T02:28:37.603Z,2.13
2023-11-13T02:31:04.527Z,2.45
2023-11-13T02:33:31.160Z,3.53
2023-11-13T02:35:57.635Z,1.70
2023-11-13T02:38:24.165Z,1.75
2023-11-13T02:40:50.755Z,2.15
2023-11-13T02:43:17.537Z,1.83
2023-11-13T02:45:44.426Z,3.05
2023-11-13T02:48:11.225Z,2.22
2023-11-13T02:50:37.756Z,2.08
2023-11-13T02:53:04.350Z,2.42
2023-11-13T02:55:30.881Z,2.03
2023-11-13T02:57:57.448Z,2.17
2023-11-13T03:00:24.317Z,1.63
2023-11-13T03:02:52.263Z,1.60
2023-11-13T03:05:19.044Z,1.75
2023-11-13T03:07:45.596Z,2.17
2023-11-13T03:10:12.382Z,2.25
2023-11-13T03:12:43.246Z,2.38
2023-11-13T03:15:12.640Z,1.77
2023-11-13T03:17:39.315Z,1.83
2023-11-13T03:20:07.904Z,2.03
2023-11-13T03:22:35.294Z,1.73
2023-11-13T03:25:02.016Z,1.60
2023-11-13T03:27:28.683Z,2.10
2023-11-13T03:29:55.225Z,1.92
2023-11-13T03:32:21.892Z,2.08
2023-11-13T03:34:48.498Z,2.30
2023-11-13T03:37:15.134Z,1.85
2023-11-13T03:39:41.722Z,1.33
2023-11-13T03:42:10.344Z,2.10
2023-11-13T03:44:36.975Z,2.15
2023-11-13T03:47:03.710Z,1.63
2023-11-13T03:49:30.245Z,1.67
2023-11-13T03:51:56.852Z,1.50
2023-11-13T03:54:24.471Z,2.22
2023-11-13T03:56:51.016Z,2.00
2023-11-13T03:59:17.594Z,1.73
2023-11-13T04:01:48.581Z,1.40
2023-11-13T04:04:15.324Z,1.90
2023-11-13T04:06:41.868Z,1.55
2023-11-13T04:09:08.560Z,1.50
2023-11-13T04:11:35.149Z,1.50
2023-11-13T04:14:01.702Z,1.20
2023-11-13T04:16:28.385Z,1.42
2023-11-13T04:18:55.233Z,1.52
2023-11-13T04:21:21.815Z,1.65
2023-11-13T04:23:48.926Z,1.17
2023-11-13T04:26:15.518Z,2.33
2023-11-13T04:28:42.259Z,1.70
2023-11-13T04:31:09.467Z,2.08
2023-11-13T04:33:36.719Z,1.63
2023-11-13T04:36:04.182Z,1.90
2023-11-13T04:38:31.292Z,2.13
2023-11-13T04:40:58.790Z,2.00
2023-11-13T04:43:27.180Z,1.05
2023-11-13T04:45:54.296Z,1.20
2023-11-13T04:48:21.699Z,2.10
2023-11-13T04:50:49.128Z,1.63
2023-11-13T04:53:15.670Z,1.80
2023-11-13T04:55:42.887Z,1.83
2023-11-13T04:58:09.612Z,1.92
2023-11-13T05:00:36.152Z,2.35
2023-11-13T05:03:02.794Z,2.42
2023-11-13T05:05:31.182Z,1.85
2023-11-13T05:07:57.856Z,1.95
2023-11-13T05:10:24.458Z,2.22
2023-11-13T05:12:51.223Z,2.17
2023-11-13T05:15:17.774Z,2.72
2023-11-13T05:17:44.502Z,2.08
2023-11-13T05:20:11.460Z,2.97
2023-11-13T05:22:38.058Z,2.30
2023-11-13T05:25:05.105Z,2.63
2023-11-13T05:27:31.899Z,1.85
2023-11-13T05:29:58.541Z,2.10
2023-11-13T05:32:25.551Z,2.42
2023-11-13T05:34:53.261Z,2.78
2023-11-13T05:37:19.883Z,2.42
2023-11-13T05:39:46.451Z,2.45
2023-11-13T05:42:13.068Z,2.30
2023-11-13T05:44:39.606Z,2.67
2023-11-13T05:47:06.606Z,2.55
2023-11-13T05:49:33.399Z,3.97
2023-11-13T05:52:00.032Z,4.05
2023-11-13T05:54:26.507Z,3.45
2023-11-13T05:56:53.072Z,4.03
2023-11-13T05:59:19.534Z,3.55
2023-11-13T06:01:46.316Z,3.25
2023-11-13T06:04:12.894Z,2.95
2023-11-13T06:06:39.487Z,3.45
2023-11-13T06:09:06.100Z,4.30
2023-11-13T06:11:32.699Z,3.63
2023-11-13T06:13:59.183Z,3.05
2023-11-13T06:16:25.737Z,3.03
2023-11-13T06:18:54.260Z,2.92
2023-11-13T06:21:21.254Z,3.00
2023-11-13T06:23:47.746Z,3.22
2023-11-13T06:26:14.327Z,3.00
2023-11-13T06:28:41.677Z,2.88
2023-11-13T06:31:12.815Z,2.35
2023-11-13T06:33:39.807Z,3.00
2023-11-13T06:36:10.760Z,3.13
2023-11-13T06:38:38.116Z,3.53
2023-11-13T06:41:05.686Z,3.00
2023-11-13T06:43:34.023Z,3.70
2023-11-13T06:46:01.700Z,3.33
2023-11-13T06:48:28.286Z,3.00
2023-11-13T06:50:55.070Z,3.17
2023-11-13T06:53:21.780Z,2.65
2023-11-13T06:55:49.209Z,2.50
2023-11-13T06:58:16.159Z,2.25
2023-11-13T07:00:42.725Z,2.35
2023-11-13T07:03:11.820Z,2.30
2023-11-13T07:05:39.158Z,2.88
2023-11-13T07:08:05.868Z,2.50
2023-11-13T07:10:34.746Z,1.98
2023-11-13T07:13:01.419Z,2.97
2023-11-13T07:15:28.026Z,3.53
2023-11-13T07:17:54.645Z,3.15
2023-11-13T07:20:21.195Z,2.50
2023-11-13T07:22:51.517Z,2.25
2023-11-13T07:25:18.328Z,1.77
2023-11-13T07:27:44.896Z,1.83
2023-11-13T07:30:11.771Z,2.08
2023-11-13T07:32:38.592Z,1.40
2023-11-13T07:35:05.825Z,1.42
2023-11-13T07:37:32.785Z,1.30
2023-11-13T07:40:00.581Z,0.73
2023-11-13T07:42:27.185Z,2.55
2023-11-13T07:44:56.496Z,1.27
2023-11-13T07:47:27.845Z,0.93
2023-11-13T07:49:58.877Z,0.90
2023-11-13T07:52:28.783Z,1.38
2023-11-13T07:54:59.880Z,1.30
2023-11-13T07:57:26.542Z,0.90
2023-11-13T07:59:54.723Z,1.35
2023-11-13T08:02:21.648Z,0.82
2023-11-13T08:04:48.415Z,0.85
2023-11-13T08:07:23.394Z,1.33
2023-11-13T08:09:52.641Z,0.85
2023-11-13T08:12:19.969Z,0.95
2023-11-13T08:14:48.093Z,1.05
2023-11-13T08:17:15.073Z,0.95
2023-11-13T08:19:43.009Z,1.30
2023-11-13T08:22:09.736Z,1.00
2023-11-13T08:24:36.537Z,1.05
2023-11-13T08:27:05.084Z,0.60
2023-11-13T08:29:34.053Z,1.00
2023-11-13T08:32:01.775Z,0.98
2023-11-13T08:34:28.643Z,1.35
2023-11-13T08:36:55.251Z,1.27
2023-11-13T08:39:23.602Z,0.90
2023-11-13T08:41:50.100Z,0.98
2023-11-13T08:44:16.664Z,1.58
2023-11-13T08:46:43.270Z,1.40
2023-11-13T08:49:10.141Z,1.10
2023-11-13T08:51:39.475Z,1.10
2023-11-13T08:54:06.188Z,1.27
2023-11-13T08:56:32.831Z,1.73
2023-11-13T08:59:00.283Z,1.35
2023-11-13T09:01:28.944Z,1.05
2023-11-13T09:03:56.194Z,0.93
2023-11-13T09:06:23.429Z,1.08
2023-11-13T09:08:54.858Z,1.08
2023-11-13T09:11:27.563Z,1.98
2023-11-13T09:13:54.189Z,0.88
2023-11-13T09:16:21.955Z,1.95
2023-11-13T09:18:56.152Z,0.90
2023-11-13T09:21:22.684Z,1.20
2023-11-13T09:23:49.199Z,0.77
2023-11-13T09:26:16.508Z,1.42
2023-11-13T09:28:43.146Z,1.05
2023-11-13T09:31:11.858Z,1.27
2023-11-13T09:33:41.201Z,1.60
2023-11-13T09:36:08.667Z,1.02
2023-11-13T09:38:35.539Z,1.08
2023-11-13T09:41:05.148Z,1.08
2023-11-13T09:43:36.138Z,1.48
2023-11-13T09:46:09.598Z,1.25
2023-11-13T09:48:46.579Z,1.25
2023-11-13T09:51:27.819Z,1.20
2023-11-13T09:53:58.972Z,0.85
2023-11-13T09:56:28.866Z,0.90
2023-11-13T09:58:58.091Z,1.20
2023-11-13T10:01:24.701Z,1.17
2023-11-13T10:03:51.851Z,0.90
2023-11-13T10:06:20.600Z,1.15
2023-11-13T10:08:48.548Z,2.00
2023-11-13T10:11:15.576Z,0.98
2023-11-13T10:13:42.739Z,0.93
2023-11-13T10:16:18.226Z,0.93
2023-11-13T10:18:45.221Z,0.75
2023-11-13T10:21:21.496Z,1.10
2023-11-13T10:23:50.285Z,1.42
2023-11-13T10:26:26.837Z,1.00
2023-11-13T10:28:53.554Z,0.82
2023-11-13T10:31:25.048Z,1.88
2023-11-13T10:34:04.260Z,0.90
2023-11-13T10:36:33.916Z,0.60
2023-11-13T10:39:00.911Z,0.95
2023-11-13T10:41:35.115Z,0.75
2023-11-13T10:44:23.716Z,1.33
2023-11-13T10:46:50.940Z,0.93
2023-11-13T10:49:19.280Z,1.15
2023-11-13T10:51:50.599Z,0.68
2023-11-13T10:54:19.103Z,0.70
2023-11-13T10:56:50.385Z,1.15
2023-11-13T10:59:17.203Z,0.73
2023-11-13T11:01:47.109Z,1.13
2023-11-13T11:04:17.712Z,1.10
2023-11-13T11:06:46.514Z,1.50
2023-11-13T11:09:19.137Z,1.23
2023-11-13T11:11:47.660Z,0.65
2023-11-13T11:14:21.940Z,1.20
2023-11-13T11:16:55.470Z,1.15
2023-11-13T11:19:30.470Z,1.05
2023-11-13T11:22:01.880Z,1.35
2023-11-13T11:24:59.547Z,1.20
2023-11-13T11:27:43.878Z,1.38
2023-11-13T11:30:19.531Z,1.05
2023-11-13T11:32:56.572Z,1.10
2023-11-13T11:35:24.777Z,1.05
2023-11-13T11:38:23.726Z,0.80
2023-11-13T11:40:51.531Z,1.10
2023-11-13T11:43:23.261Z,0.90
2023-11-13T11:45:55.596Z,2.03
2023-11-13T11:48:25.682Z,0.77
2023-11-13T11:51:04.541Z,1.15
2023-11-13T11:53:31.150Z,1.15
2023-11-13T11:55:59.675Z,0.90
2023-11-13T11:58:26.370Z,1.02
2023-11-13T12:00:52.978Z,1.58
2023-11-13T12:03:20.310Z,0.93
2023-11-13T12:05:48.351Z,1.00
2023-11-13T12:08:15.168Z,1.38
2023-11-13T12:10:43.738Z,0.93
2023-11-13T12:13:10.475Z,0.98
2023-11-13T12:15:37.296Z,1.27
2023-11-13T12:18:04.126Z,2.92
2023-11-13T12:20:32.103Z,0.90
2023-11-13T12:22:58.950Z,1.20
2023-11-13T12:25:25.694Z,0.90
2023-11-13T12:27:55.567Z,2.28
2023-11-13T12:30:22.978Z,1.20
2023-11-13T12:32:52.917Z,1.00
2023-11-13T12:35:21.775Z,1.85
2023-11-13T12:37:50.011Z,1.25
2023-11-13T12:40:18.161Z,1.13
2023-11-13T12:42:45.213Z,0.80
2023-11-13T12:45:13.956Z,0.60
2023-11-13T12:48:01.412Z,0.77
2023-11-13T12:50:28.043Z,1.33
2023-11-13T12:52:56.283Z,0.80
2023-11-13T12:55:24.012Z,0.98
2023-11-13T12:57:51.835Z,0.70
2023-11-13T13:00:21.036Z,1.20
2023-11-13T13:02:50.967Z,1.10
2023-11-13T13:05:29.924Z,1.25
2023-11-13T13:08:00.220Z,0.70
2023-11-13T13:10:27.116Z,0.90
2023-11-13T13:12:55.075Z,0.70
2023-11-13T13:15:22.507Z,1.25
2023-11-13T13:17:53.220Z,0.50
2023-11-13T13:20:31.747Z,0.60
2023-11-13T13:23:00.231Z,0.60
2023-11-13T13:25:31.938Z,0.75
2023-11-13T13:27:59.484Z,0.65
2023-11-13T13:30:31.260Z,0.70
2023-11-13T13:32:58.010Z,0.60
2023-11-13T13:35:24.577Z,0.60
2023-11-13T13:37:51.071Z,0.50
2023-11-13T13:40:18.449Z,0.40
2023-11-13T13:42:46.211Z,0.70
2023-11-13T13:45:19.543Z,0.60
2023-11-13T13:47:50.270Z,0.70
2023-11-13T13:50:21.990Z,1.10
2023-11-13T13:52:52.711Z,0.38
2023-11-13T13:55:22.326Z,0.63
2023-11-13T13:57:51.334Z,0.70
2023-11-13T14:00:36.426Z,0.95
2023-11-13T14:03:11.558Z,0.77
2023-11-13T14:05:42.428Z,0.77
2023-11-13T14:08:13.166Z,0.70
2023-11-13T14:10:40.718Z,1.35
2023-11-13T14:13:07.374Z,0.70
2023-11-13T14:15:34.197Z,0.73
2023-11-13T14:18:01.256Z,1.02
2023-11-13T14:20:28.324Z,0.98
2023-11-13T14:22:59.890Z,0.93
2023-11-13T14:27:55.464Z,1.20
2023-11-13T14:30:27.922Z,1.58
2023-11-13T14:32:55.386Z,1.27
2023-11-13T14:35:24.641Z,0.98
2023-11-13T14:37:54.238Z,0.98
2023-11-13T14:40:24.908Z,0.70
2023-11-13T14:42:51.559Z,0.90
2023-11-13T14:45:21.165Z,1.20
2023-11-13T14:47:49.562Z,8.18
2023-11-13T14:50:20.813Z,1.70
2023-11-13T14:52:54.571Z,2.55
2023-11-13T14:55:23.383Z,1.10
2023-11-13T14:57:51.874Z,0.70
2023-11-13T15:00:21.574Z,0.65
2023-11-13T15:02:50.516Z,1.00
2023-11-13T15:05:17.567Z,0.70
2023-11-13T15:07:44.894Z,0.40
2023-11-13T15:10:14.057Z,0.90
2023-11-13T15:12:41.513Z,0.63
2023-11-13T15:15:16.557Z,0.70
2023-11-13T15:17:46.157Z,0.50
2023-11-13T15:20:16.089Z,0.50
2023-11-13T15:25:15.361Z,0.40
2023-11-13T15:27:41.940Z,0.40
2023-11-13T15:30:10.752Z,0.60
2023-11-13T15:32:37.954Z,0.50
2023-11-13T15:35:06.701Z,0.60
2023-11-13T15:37:33.475Z,0.30
2023-11-13T15:40:00.077Z,0.40
2023-11-13T15:42:26.685Z,0.40
2023-11-13T15:44:53.242Z,0.47
2023-11-13T15:47:19.741Z,0.20
2023-11-13T15:49:46.301Z,0.32
2023-11-13T15:52:13.106Z,0.25
2023-11-13T15:54:39.843Z,0.28
2023-11-13T15:57:07.049Z,0.20
2023-11-13T15:59:33.860Z,0.40
2023-11-13T16:02:04.388Z,0.20
2023-11-13T16:04:32.227Z,0.17
2023-11-13T16:07:04.195Z,0.20
2023-11-13T16:09:30.741Z,0.10
2023-11-13T16:11:58.303Z,0.20
2023-11-13T16:14:24.818Z,0.20
2023-11-13T16:16:51.445Z,0.20
2023-11-13T16:19:18.116Z,0.20
2023-11-13T16:21:45.624Z,0.10
2023-11-13T16:24:12.399Z,0.20
2023-11-13T16:26:38.964Z,0.17
2023-11-13T16:29:09.723Z,0.40
2023-11-13T16:31:36.932Z,0.50
2023-11-13T16:34:05.654Z,0.30
2023-11-13T16:36:33.882Z,0.20
2023-11-13T16:39:01.635Z,0.30
2023-11-13T16:41:28.153Z,0.30
2023-11-13T16:43:54.699Z,0.63
2023-11-13T16:46:22.484Z,0.40
2023-11-13T16:48:49.477Z,0.47
2023-11-13T16:51:16.875Z,4.88
2023-11-13T16:53:44.669Z,1.60
2023-11-13T16:56:11.229Z,0.60
2023-11-13T16:58:37.799Z,2.03
2023-11-13T17:01:08.096Z,1.50
2023-11-13T17:03:37.535Z,1.30
2023-11-13T17:06:07.224Z,0.40
2023-11-13T17:08:33.989Z,0.40
2023-11-13T17:11:00.561Z,0.63
2023-11-13T17:13:27.185Z,0.35
2023-11-13T17:15:53.814Z,0.38
2023-11-13T17:18:20.406Z,0.45
2023-11-13T17:20:47.074Z,0.40
2023-11-13T17:23:13.829Z,0.38
2023-11-13T17:25:40.377Z,0.40
2023-11-13T17:28:06.935Z,0.40
2023-11-13T17:30:34.032Z,0.30
2023-11-13T17:33:00.702Z,0.30
2023-11-13T17:35:28.131Z,0.28
2023-11-13T17:37:54.797Z,0.43
2023-11-13T17:40:22.729Z,0.40
2023-11-13T17:42:49.414Z,0.30
2023-11-13T17:45:16.008Z,0.50
2023-11-13T17:47:42.633Z,0.20
2023-11-13T17:50:10.789Z,0.30
2023-11-13T17:52:40.948Z,0.30
2023-11-13T17:55:12.200Z,0.50
2023-11-13T17:57:39.407Z,0.60
2023-11-13T18:00:14.114Z,0.25
2023-11-13T18:02:46.017Z,0.32
2023-11-13T18:05:12.818Z,0.20
2023-11-13T18:07:40.774Z,0.22
2023-11-13T18:10:09.081Z,0.30
2023-11-13T18:12:35.695Z,0.28
2023-11-13T18:15:04.468Z,0.30
2023-11-13T18:17:32.332Z,0.22
2023-11-13T18:19:59.505Z,0.40
2023-11-13T18:22:26.186Z,0.20
2023-11-13T18:24:52.735Z,0.35
2023-11-13T18:27:19.279Z,0.40
2023-11-13T18:29:45.778Z,0.30
2023-11-13T18:32:12.428Z,0.50
2023-11-13T18:34:38.997Z,0.20
2023-11-13T18:37:06.566Z,0.43
2023-11-13T18:39:34.919Z,0.88
2023-11-13T18:42:03.765Z,4.53
2023-11-13T18:44:30.340Z,1.10
2023-11-13T18:46:57.438Z,0.93
2023-11-13T18:49:24.528Z,0.50
2023-11-13T18:51:51.075Z,0.32
2023-11-13T18:54:17.705Z,0.43
2023-11-13T18:56:44.325Z,0.30
2023-11-13T18:59:11.050Z,0.22
2023-11-13T19:01:39.261Z,0.40
2023-11-13T19:04:07.116Z,0.35
2023-11-13T19:06:40.243Z,0.50
2023-11-13T19:09:06.731Z,0.40
2023-11-13T19:11:33.211Z,0.40
2023-11-13T19:14:02.326Z,0.35
2023-11-13T19:16:29.232Z,0.38
2023-11-13T19:18:56.003Z,0.93
2023-11-13T19:21:26.762Z,0.43
2023-11-13T19:23:55.544Z,0.50
2023-11-13T19:26:22.941Z,0.40
2023-11-13T19:28:50.276Z,0.38
2023-11-13T19:31:17.625Z,0.60
2023-11-13T19:33:44.507Z,0.50
2023-11-13T19:36:11.993Z,1.20
2023-11-13T19:38:38.598Z,0.82
2023-11-13T19:41:06.769Z,0.30
2023-11-13T19:43:34.671Z,0.38
2023-11-13T19:46:01.207Z,0.50
2023-11-13T19:48:29.837Z,0.38
2023-11-13T19:50:56.891Z,0.40
2023-11-13T19:53:23.785Z,0.47
2023-11-13T19:55:50.414Z,0.30
2023-11-13T19:58:17.016Z,0.38
2023-11-13T20:00:43.961Z,0.30
2023-11-13T20:03:10.666Z,0.30
2023-11-13T20:05:37.445Z,0.40
2023-11-13T20:08:05.624Z,0.30
2023-11-13T20:10:32.937Z,0.40
2023-11-13T20:12:59.547Z,0.40
2023-11-13T20:15:26.200Z,0.52
2023-11-13T20:17:53.348Z,0.50
2023-11-13T20:20:20.178Z,0.57
2023-11-13T20:22:47.344Z,0.60
2023-11-13T20:25:14.318Z,0.50
2023-11-13T20:27:40.897Z,0.50
2023-11-13T20:30:07.973Z,1.10
2023-11-13T20:32:35.032Z,0.80
2023-11-13T20:35:02.272Z,0.50
2023-11-13T20:37:29.224Z,0.60
2023-11-13T20:39:56.053Z,0.60
2023-11-13T20:42:22.794Z,0.50
2023-11-13T20:44:49.484Z,0.50
2023-11-13T20:47:16.155Z,0.68
2023-11-13T20:49:42.895Z,0.55
2023-11-13T20:52:10.735Z,0.57
2023-11-13T20:54:37.336Z,0.40
2023-11-13T20:57:04.750Z,0.40
2023-11-13T20:59:33.150Z,0.30
2023-11-13T21:02:02.711Z,0.35
2023-11-13T21:04:30.171Z,0.30
2023-11-13T21:06:56.941Z,0.28
2023-11-13T21:09:23.508Z,0.45
2023-11-13T21:11:51.056Z,0.30
2023-11-13T21:14:17.923Z,1.08
2023-11-13T21:16:44.859Z,0.30
2023-11-13T21:19:11.583Z,0.20
2023-11-13T21:21:38.093Z,0.30
2023-11-13T21:24:09.481Z,0.38
2023-11-13T21:26:36.697Z,0.43
2023-11-13T21:29:04.911Z,0.30
2023-11-13T21:31:31.893Z,0.40
2023-11-13T21:33:59.614Z,0.52
2023-11-13T21:36:26.789Z,0.47
2023-11-13T21:38:54.531Z,0.30
2023-11-13T21:41:21.558Z,0.70
2023-11-13T21:43:51.096Z,0.40
2023-11-13T21:46:17.990Z,0.30
2023-11-13T21:48:44.671Z,0.60
2023-11-13T21:51:11.353Z,0.22
2023-11-13T21:53:38.620Z,0.30
2023-11-13T21:56:08.552Z,0.30
2023-11-13T21:58:35.221Z,0.80
2023-11-13T22:01:02.213Z,0.30
2023-11-13T22:03:29.559Z,0.25
2023-11-13T22:05:58.417Z,0.20
2023-11-13T22:08:25.248Z,0.50
2023-11-13T22:10:53.373Z,0.30
2023-11-13T22:13:20.270Z,0.40
2023-11-13T22:15:46.850Z,0.30
2023-11-13T22:18:13.418Z,0.30
2023-11-13T22:20:39.959Z,0.20
2023-11-13T22:23:09.191Z,0.17
2023-11-13T22:25:36.208Z,0.52
2023-11-13T22:28:03.260Z,0.20
2023-11-13T22:30:29.979Z,0.20
2023-11-13T22:32:57.882Z,0.30
2023-11-13T22:35:24.972Z,0.38
2023-11-13T22:37:52.508Z,0.70
2023-11-13T22:40:19.283Z,0.50
2023-11-13T22:42:45.870Z,0.50
2023-11-13T22:45:12.622Z,0.50
2023-11-13T22:47:39.199Z,0.63
2023-11-13T22:50:09.160Z,0.30
2023-11-13T22:52:36.464Z,0.20
2023-11-13T22:55:02.987Z,0.25
2023-11-13T22:57:30.259Z,0.45
2023-11-13T22:59:56.982Z,0.38
2023-11-13T23:02:23.852Z,0.22
2023-11-13T23:04:52.325Z,0.40
2023-11-13T23:07:19.207Z,0.40
2023-11-13T23:09:46.614Z,0.32
2023-11-13T23:12:13.516Z,0.40
2023-11-13T23:14:40.345Z,0.30
2023-11-13T23:17:07.128Z,0.28
2023-11-13T23:19:34.268Z,0.20
2023-11-13T23:22:04.568Z,0.30
2023-11-13T23:24:32.732Z,0.30
2023-11-13T23:27:00.968Z,0.30
2023-11-13T23:29:28.438Z,0.28
2023-11-13T23:31:55.626Z,0.22
2023-11-13T23:34:22.429Z,0.40
2023-11-13T23:36:49.739Z,0.30
2023-11-13T23:39:17.199Z,0.45
2023-11-13T23:41:43.791Z,0.30
2023-11-13T23:44:11.962Z,0.20
2023-11-13T23:46:39.996Z,0.20
2023-11-13T23:49:07.291Z,0.20
2023-11-13T23:51:34.008Z,0.20
2023-11-13T23:54:01.435Z,0.10
2023-11-13T23:56:28.638Z,0.30
2023-11-13T23:58:57.449Z,0.10
